sensor_id;sensor_type;location;lat;lon;timestamp;temperature;humidity
47354;DHT22;50657;48.830;2.282;2022-12-08T00:01:49;17.80;47.70
47354;DHT22;50657;48.830;2.282;2022-12-08T00:04:16;17.90;47.80
47354;DHT22;50657;48.830;2.282;2022-12-08T00:06:43;17.90;47.80
47354;DHT22;50657;48.830;2.282;2022-12-08T00:09:30;17.90;47.80
47354;DHT22;50657;48.830;2.282;2022-12-08T00:12:00;17.90;47.80
47354;DHT22;50657;48.830;2.282;2022-12-08T00:14:30;17.90;47.90
47354;DHT22;50657;48.830;2.282;2022-12-08T00:16:57;17.90;48.00
47354;DHT22;50657;48.830;2.282;2022-12-08T00:19:26;17.90;47.90
47354;DHT22;50657;48.830;2.282;2022-12-08T00:21:53;17.90;48.00
47354;DHT22;50657;48.830;2.282;2022-12-08T00:24:22;17.90;48.00
47354;DHT22;50657;48.830;2.282;2022-12-08T00:26:50;17.90;48.00
47354;DHT22;50657;48.830;2.282;2022-12-08T00:29:18;17.90;48.10
47354;DHT22;50657;48.830;2.282;2022-12-08T00:31:45;17.90;48.20
47354;DHT22;50657;48.830;2.282;2022-12-08T00:34:13;17.90;48.20
47354;DHT22;50657;48.830;2.282;2022-12-08T00:36:40;17.90;48.30
47354;DHT22;50657;48.830;2.282;2022-12-08T00:39:08;17.90;48.30
47354;DHT22;50657;48.830;2.282;2022-12-08T00:41:35;17.90;48.50
47354;DHT22;50657;48.830;2.282;2022-12-08T00:44:21;17.90;48.60
47354;DHT22;50657;48.830;2.282;2022-12-08T00:46:48;17.90;48.70
47354;DHT22;50657;48.830;2.282;2022-12-08T00:49:16;17.90;48.80
47354;DHT22;50657;48.830;2.282;2022-12-08T00:51:43;17.90;48.90
47354;DHT22;50657;48.830;2.282;2022-12-08T00:54:10;17.90;49.00
47354;DHT22;50657;48.830;2.282;2022-12-08T00:56:38;17.90;49.00
47354;DHT22;50657;48.830;2.282;2022-12-08T00:59:06;17.90;48.90
47354;DHT22;50657;48.830;2.282;2022-12-08T01:01:35;17.90;48.90
47354;DHT22;50657;48.830;2.282;2022-12-08T01:04:02;17.90;49.00
47354;DHT22;50657;48.830;2.282;2022-12-08T01:06:30;17.90;49.10
47354;DHT22;50657;48.830;2.282;2022-12-08T01:08:57;17.90;49.00
47354;DHT22;50657;48.830;2.282;2022-12-08T01:11:24;17.90;49.00
47354;DHT22;50657;48.830;2.282;2022-12-08T01:13:52;17.90;49.00
47354;DHT22;50657;48.830;2.282;2022-12-08T01:16:21;17.90;49.00
47354;DHT22;50657;48.830;2.282;2022-12-08T01:18:50;17.90;49.00
47354;DHT22;50657;48.830;2.282;2022-12-08T01:21:18;17.90;49.00
47354;DHT22;50657;48.830;2.282;2022-12-08T01:23:45;17.90;49.00
47354;DHT22;50657;48.830;2.282;2022-12-08T01:26:14;17.90;48.90
47354;DHT22;50657;48.830;2.282;2022-12-08T01:28:42;18.00;49.10
47354;DHT22;50657;48.830;2.282;2022-12-08T01:31:11;17.90;49.10
47354;DHT22;50657;48.830;2.282;2022-12-08T01:33:39;18.00;49.30
47354;DHT22;50657;48.830;2.282;2022-12-08T01:36:09;18.00;49.20
47354;DHT22;50657;48.830;2.282;2022-12-08T01:38:44;18.00;49.10
47354;DHT22;50657;48.830;2.282;2022-12-08T01:41:13;17.90;49.00
47354;DHT22;50657;48.830;2.282;2022-12-08T01:43:58;18.00;49.10
47354;DHT22;50657;48.830;2.282;2022-12-08T01:46:27;18.00;49.00
47354;DHT22;50657;48.830;2.282;2022-12-08T01:48:58;17.90;49.10
47354;DHT22;50657;48.830;2.282;2022-12-08T01:51:30;17.90;49.00
47354;DHT22;50657;48.830;2.282;2022-12-08T01:53:58;17.90;49.00
47354;DHT22;50657;48.830;2.282;2022-12-08T01:56:29;17.90;49.00
47354;DHT22;50657;48.830;2.282;2022-12-08T01:58:59;17.90;48.90
47354;DHT22;50657;48.830;2.282;2022-12-08T02:01:26;17.90;48.90
47354;DHT22;50657;48.830;2.282;2022-12-08T02:03:57;17.90;48.90
47354;DHT22;50657;48.830;2.282;2022-12-08T02:06:28;17.90;48.80
47354;DHT22;50657;48.830;2.282;2022-12-08T02:08:57;17.90;48.80
47354;DHT22;50657;48.830;2.282;2022-12-08T02:11:25;17.80;48.80
47354;DHT22;50657;48.830;2.282;2022-12-08T02:13:53;17.80;48.80
47354;DHT22;50657;48.830;2.282;2022-12-08T02:16:31;17.80;48.80
47354;DHT22;50657;48.830;2.282;2022-12-08T02:19:11;17.80;48.70
47354;DHT22;50657;48.830;2.282;2022-12-08T02:21:50;17.80;48.80
47354;DHT22;50657;48.830;2.282;2022-12-08T02:24:29;17.80;48.80
47354;DHT22;50657;48.830;2.282;2022-12-08T02:27:25;17.80;48.90
47354;DHT22;50657;48.830;2.282;2022-12-08T02:30:17;17.80;48.80
47354;DHT22;50657;48.830;2.282;2022-12-08T02:33:15;17.80;48.70
47354;DHT22;50657;48.830;2.282;2022-12-08T02:35:52;17.80;48.80
47354;DHT22;50657;48.830;2.282;2022-12-08T02:38:28;17.70;48.80
47354;DHT22;50657;48.830;2.282;2022-12-08T02:41:01;17.80;48.90
47354;DHT22;50657;48.830;2.282;2022-12-08T02:43:37;17.70;48.90
47354;DHT22;50657;48.830;2.282;2022-12-08T02:46:08;17.70;48.80
47354;DHT22;50657;48.830;2.282;2022-12-08T02:48:37;17.70;48.60
47354;DHT22;50657;48.830;2.282;2022-12-08T02:51:05;17.70;48.70
47354;DHT22;50657;48.830;2.282;2022-12-08T02:53:34;17.70;48.80
47354;DHT22;50657;48.830;2.282;2022-12-08T02:56:13;17.70;48.90
47354;DHT22;50657;48.830;2.282;2022-12-08T02:59:08;17.70;48.90
47354;DHT22;50657;48.830;2.282;2022-12-08T03:01:58;17.70;48.80
47354;DHT22;50657;48.830;2.282;2022-12-08T03:04:35;17.70;48.90
47354;DHT22;50657;48.830;2.282;2022-12-08T03:07:10;17.70;48.90
47354;DHT22;50657;48.830;2.282;2022-12-08T03:09:41;17.60;48.90
47354;DHT22;50657;48.830;2.282;2022-12-08T03:12:15;17.70;49.10
47354;DHT22;50657;48.830;2.282;2022-12-08T03:14:46;17.70;49.10
47354;DHT22;50657;48.830;2.282;2022-12-08T03:17:14;17.70;49.10
47354;DHT22;50657;48.830;2.282;2022-12-08T03:19:44;17.70;49.20
47354;DHT22;50657;48.830;2.282;2022-12-08T03:22:15;17.70;49.20
47354;DHT22;50657;48.830;2.282;2022-12-08T03:24:44;17.70;49.20
47354;DHT22;50657;48.830;2.282;2022-12-08T03:27:14;17.70;49.20
47354;DHT22;50657;48.830;2.282;2022-12-08T03:29:44;17.60;49.10
47354;DHT22;50657;48.830;2.282;2022-12-08T03:32:21;17.60;49.00
47354;DHT22;50657;48.830;2.282;2022-12-08T03:34:49;17.60;49.00
47354;DHT22;50657;48.830;2.282;2022-12-08T03:37:19;17.60;49.10
47354;DHT22;50657;48.830;2.282;2022-12-08T03:39:46;17.60;49.10
47354;DHT22;50657;48.830;2.282;2022-12-08T03:42:13;17.60;49.20
47354;DHT22;50657;48.830;2.282;2022-12-08T03:44:41;17.60;49.20
47354;DHT22;50657;48.830;2.282;2022-12-08T03:47:08;17.60;49.20
47354;DHT22;50657;48.830;2.282;2022-12-08T03:49:35;17.60;49.70
47354;DHT22;50657;48.830;2.282;2022-12-08T03:52:02;17.60;49.20
47354;DHT22;50657;48.830;2.282;2022-12-08T03:54:30;17.60;49.10
47354;DHT22;50657;48.830;2.282;2022-12-08T03:56:57;17.60;49.00
47354;DHT22;50657;48.830;2.282;2022-12-08T03:59:24;17.60;49.00
47354;DHT22;50657;48.830;2.282;2022-12-08T04:01:51;17.60;49.10
47354;DHT22;50657;48.830;2.282;2022-12-08T04:04:18;17.60;49.00
47354;DHT22;50657;48.830;2.282;2022-12-08T04:06:45;17.60;48.80
47354;DHT22;50657;48.830;2.282;2022-12-08T04:09:12;17.60;48.80
47354;DHT22;50657;48.830;2.282;2022-12-08T04:11:41;17.60;48.70
47354;DHT22;50657;48.830;2.282;2022-12-08T04:14:08;17.60;48.90
47354;DHT22;50657;48.830;2.282;2022-12-08T04:16:35;17.60;48.90
47354;DHT22;50657;48.830;2.282;2022-12-08T04:19:02;17.60;48.90
47354;DHT22;50657;48.830;2.282;2022-12-08T04:21:29;17.60;48.90
47354;DHT22;50657;48.830;2.282;2022-12-08T04:23:56;17.60;48.90
47354;DHT22;50657;48.830;2.282;2022-12-08T04:26:23;17.60;48.80
47354;DHT22;50657;48.830;2.282;2022-12-08T04:28:52;17.60;49.00
47354;DHT22;50657;48.830;2.282;2022-12-08T04:31:19;17.60;48.70
47354;DHT22;50657;48.830;2.282;2022-12-08T04:33:46;17.60;48.80
47354;DHT22;50657;48.830;2.282;2022-12-08T04:36:13;17.60;48.80
47354;DHT22;50657;48.830;2.282;2022-12-08T04:38:40;17.60;48.90
47354;DHT22;50657;48.830;2.282;2022-12-08T04:41:08;17.60;48.80
47354;DHT22;50657;48.830;2.282;2022-12-08T04:43:35;17.60;48.80
47354;DHT22;50657;48.830;2.282;2022-12-08T04:46:06;17.60;48.80
47354;DHT22;50657;48.830;2.282;2022-12-08T04:48:35;17.60;48.80
47354;DHT22;50657;48.830;2.282;2022-12-08T04:51:02;17.60;48.70
47354;DHT22;50657;48.830;2.282;2022-12-08T04:53:29;17.60;48.80
47354;DHT22;50657;48.830;2.282;2022-12-08T04:55:56;17.60;48.70
47354;DHT22;50657;48.830;2.282;2022-12-08T04:58:23;17.60;48.70
47354;DHT22;50657;48.830;2.282;2022-12-08T05:00:50;17.60;48.70
47354;DHT22;50657;48.830;2.282;2022-12-08T05:03:19;17.60;48.70
47354;DHT22;50657;48.830;2.282;2022-12-08T05:05:46;17.60;48.50
47354;DHT22;50657;48.830;2.282;2022-12-08T05:08:13;17.60;48.60
47354;DHT22;50657;48.830;2.282;2022-12-08T05:10:40;17.60;48.60
47354;DHT22;50657;48.830;2.282;2022-12-08T05:13:07;17.60;48.60
47354;DHT22;50657;48.830;2.282;2022-12-08T05:15:34;17.60;48.50
47354;DHT22;50657;48.830;2.282;2022-12-08T05:18:02;17.60;48.50
47354;DHT22;50657;48.830;2.282;2022-12-08T05:20:32;17.60;48.40
47354;DHT22;50657;48.830;2.282;2022-12-08T05:22:59;17.60;48.50
47354;DHT22;50657;48.830;2.282;2022-12-08T05:25:27;17.60;48.40
47354;DHT22;50657;48.830;2.282;2022-12-08T05:27:54;17.60;48.50
47354;DHT22;50657;48.830;2.282;2022-12-08T05:30:21;17.60;48.40
47354;DHT22;50657;48.830;2.282;2022-12-08T05:32:48;17.60;48.40
47354;DHT22;50657;48.830;2.282;2022-12-08T05:35:15;17.60;48.40
47354;DHT22;50657;48.830;2.282;2022-12-08T05:37:44;17.60;48.50
47354;DHT22;50657;48.830;2.282;2022-12-08T05:40:11;17.60;48.40
47354;DHT22;50657;48.830;2.282;2022-12-08T05:42:38;17.60;48.40
47354;DHT22;50657;48.830;2.282;2022-12-08T05:45:06;17.60;48.40
47354;DHT22;50657;48.830;2.282;2022-12-08T05:47:33;17.60;48.40
47354;DHT22;50657;48.830;2.282;2022-12-08T05:50:00;17.60;48.40
47354;DHT22;50657;48.830;2.282;2022-12-08T05:52:27;17.60;48.20
47354;DHT22;50657;48.830;2.282;2022-12-08T05:54:56;17.60;48.20
47354;DHT22;50657;48.830;2.282;2022-12-08T05:57:23;17.60;48.10
47354;DHT22;50657;48.830;2.282;2022-12-08T05:59:50;17.60;48.20
47354;DHT22;50657;48.830;2.282;2022-12-08T06:02:17;17.60;48.20
47354;DHT22;50657;48.830;2.282;2022-12-08T06:04:44;17.60;48.10
47354;DHT22;50657;48.830;2.282;2022-12-08T06:07:11;17.60;48.00
47354;DHT22;50657;48.830;2.282;2022-12-08T06:09:38;17.50;47.90
47354;DHT22;50657;48.830;2.282;2022-12-08T06:12:07;17.60;47.90
47354;DHT22;50657;48.830;2.282;2022-12-08T06:14:36;17.60;48.00
47354;DHT22;50657;48.830;2.282;2022-12-08T06:17:04;17.60;47.90
47354;DHT22;50657;48.830;2.282;2022-12-08T06:19:31;17.60;47.90
47354;DHT22;50657;48.830;2.282;2022-12-08T06:21:58;17.60;48.00
47354;DHT22;50657;48.830;2.282;2022-12-08T06:24:25;17.60;47.90
47354;DHT22;50657;48.830;2.282;2022-12-08T06:26:52;17.60;47.90
47354;DHT22;50657;48.830;2.282;2022-12-08T06:29:21;17.60;48.00
47354;DHT22;50657;48.830;2.282;2022-12-08T06:31:48;17.60;48.00
47354;DHT22;50657;48.830;2.282;2022-12-08T06:34:15;17.60;48.00
47354;DHT22;50657;48.830;2.282;2022-12-08T06:36:42;17.60;48.00
47354;DHT22;50657;48.830;2.282;2022-12-08T06:39:09;17.60;47.90
47354;DHT22;50657;48.830;2.282;2022-12-08T06:41:36;17.60;47.90
47354;DHT22;50657;48.830;2.282;2022-12-08T06:44:25;17.60;47.80
47354;DHT22;50657;48.830;2.282;2022-12-08T06:46:52;17.60;47.80
47354;DHT22;50657;48.830;2.282;2022-12-08T06:49:19;17.60;47.80
47354;DHT22;50657;48.830;2.282;2022-12-08T06:51:46;17.60;47.70
47354;DHT22;50657;48.830;2.282;2022-12-08T06:54:13;17.60;47.60
47354;DHT22;50657;48.830;2.282;2022-12-08T06:56:40;17.60;47.70
47354;DHT22;50657;48.830;2.282;2022-12-08T06:59:07;17.60;47.60
47354;DHT22;50657;48.830;2.282;2022-12-08T07:01:36;17.60;47.50
47354;DHT22;50657;48.830;2.282;2022-12-08T07:04:03;17.60;47.50
47354;DHT22;50657;48.830;2.282;2022-12-08T07:06:30;17.60;47.50
47354;DHT22;50657;48.830;2.282;2022-12-08T07:08:57;17.60;47.70
47354;DHT22;50657;48.830;2.282;2022-12-08T07:11:24;17.60;47.60
47354;DHT22;50657;48.830;2.282;2022-12-08T07:13:51;17.60;47.60
47354;DHT22;50657;48.830;2.282;2022-12-08T07:16:21;17.60;47.50
47354;DHT22;50657;48.830;2.282;2022-12-08T07:18:49;17.60;47.60
47354;DHT22;50657;48.830;2.282;2022-12-08T07:21:17;17.60;47.60
47354;DHT22;50657;48.830;2.282;2022-12-08T07:23:45;17.60;47.80
47354;DHT22;50657;48.830;2.282;2022-12-08T07:26:12;17.60;47.80
47354;DHT22;50657;48.830;2.282;2022-12-08T07:28:40;17.60;47.80
47354;DHT22;50657;48.830;2.282;2022-12-08T07:31:17;17.60;47.70
47354;DHT22;50657;48.830;2.282;2022-12-08T07:33:44;17.60;47.80
47354;DHT22;50657;48.830;2.282;2022-12-08T07:36:13;17.60;47.80
47354;DHT22;50657;48.830;2.282;2022-12-08T07:38:40;17.60;47.70
47354;DHT22;50657;48.830;2.282;2022-12-08T07:41:11;17.60;47.80
47354;DHT22;50657;48.830;2.282;2022-12-08T07:43:39;17.60;47.80
47354;DHT22;50657;48.830;2.282;2022-12-08T07:46:06;17.60;47.80
47354;DHT22;50657;48.830;2.282;2022-12-08T07:48:33;17.50;47.80
47354;DHT22;50657;48.830;2.282;2022-12-08T07:51:00;17.60;47.90
47354;DHT22;50657;48.830;2.282;2022-12-08T07:53:30;17.60;48.00
47354;DHT22;50657;48.830;2.282;2022-12-08T07:55:57;17.60;48.00
47354;DHT22;50657;48.830;2.282;2022-12-08T07:58:25;17.60;48.00
47354;DHT22;50657;48.830;2.282;2022-12-08T08:00:52;17.50;48.00
47354;DHT22;50657;48.830;2.282;2022-12-08T08:03:20;17.60;48.10
47354;DHT22;50657;48.830;2.282;2022-12-08T08:05:47;17.50;48.20
47354;DHT22;50657;48.830;2.282;2022-12-08T08:08:14;17.60;48.20
47354;DHT22;50657;48.830;2.282;2022-12-08T08:10:43;17.60;48.20
47354;DHT22;50657;48.830;2.282;2022-12-08T08:13:12;17.60;48.30
47354;DHT22;50657;48.830;2.282;2022-12-08T08:15:39;17.50;48.20
47354;DHT22;50657;48.830;2.282;2022-12-08T08:18:06;17.50;48.20
47354;DHT22;50657;48.830;2.282;2022-12-08T08:20:33;17.60;48.40
47354;DHT22;50657;48.830;2.282;2022-12-08T08:23:01;17.60;48.30
47354;DHT22;50657;48.830;2.282;2022-12-08T08:25:28;17.60;48.30
47354;DHT22;50657;48.830;2.282;2022-12-08T08:27:57;17.50;48.30
47354;DHT22;50657;48.830;2.282;2022-12-08T08:30:24;17.60;48.50
47354;DHT22;50657;48.830;2.282;2022-12-08T08:32:52;17.60;48.50
47354;DHT22;50657;48.830;2.282;2022-12-08T08:35:19;17.50;48.50
47354;DHT22;50657;48.830;2.282;2022-12-08T08:37:47;17.60;48.60
47354;DHT22;50657;48.830;2.282;2022-12-08T08:40:14;17.50;48.90
47354;DHT22;50657;48.830;2.282;2022-12-08T08:42:41;17.60;48.80
47354;DHT22;50657;48.830;2.282;2022-12-08T08:45:10;17.70;48.30
47354;DHT22;50657;48.830;2.282;2022-12-08T08:47:38;17.80;47.90
47354;DHT22;50657;48.830;2.282;2022-12-08T08:50:06;17.90;47.60
47354;DHT22;50657;48.830;2.282;2022-12-08T08:52:33;18.10;47.30
47354;DHT22;50657;48.830;2.282;2022-12-08T08:55:00;18.20;46.90
47354;DHT22;50657;48.830;2.282;2022-12-08T08:57:27;18.30;46.60
47354;DHT22;50657;48.830;2.282;2022-12-08T08:59:54;18.40;46.40
47354;DHT22;50657;48.830;2.282;2022-12-08T09:02:22;18.50;46.20
47354;DHT22;50657;48.830;2.282;2022-12-08T09:04:50;18.60;46.10
47354;DHT22;50657;48.830;2.282;2022-12-08T09:07:18;18.60;45.90
47354;DHT22;50657;48.830;2.282;2022-12-08T09:09:45;18.70;45.90
47354;DHT22;50657;48.830;2.282;2022-12-08T09:12:12;18.80;45.50
47354;DHT22;50657;48.830;2.282;2022-12-08T09:14:39;18.80;45.10
47354;DHT22;50657;48.830;2.282;2022-12-08T09:17:07;18.90;44.90
47354;DHT22;50657;48.830;2.282;2022-12-08T09:19:36;19.00;44.70
47354;DHT22;50657;48.830;2.282;2022-12-08T09:22:04;19.00;44.50
47354;DHT22;50657;48.830;2.282;2022-12-08T09:24:31;19.10;44.90
47354;DHT22;50657;48.830;2.282;2022-12-08T09:26:59;19.10;44.10
47354;DHT22;50657;48.830;2.282;2022-12-08T09:29:26;19.20;43.90
47354;DHT22;50657;48.830;2.282;2022-12-08T09:31:53;19.30;43.70
47354;DHT22;50657;48.830;2.282;2022-12-08T09:34:20;19.30;43.60
47354;DHT22;50657;48.830;2.282;2022-12-08T09:36:50;19.30;43.40
47354;DHT22;50657;48.830;2.282;2022-12-08T09:39:17;19.40;43.40
47354;DHT22;50657;48.830;2.282;2022-12-08T09:41:48;19.40;43.20
47354;DHT22;50657;48.830;2.282;2022-12-08T09:47:25;19.60;42.80
47354;DHT22;50657;48.830;2.282;2022-12-08T09:49:59;19.50;42.90
47354;DHT22;50657;48.830;2.282;2022-12-08T09:52:32;19.60;42.80
47354;DHT22;50657;48.830;2.282;2022-12-08T09:55:08;19.70;42.80
47354;DHT22;50657;48.830;2.282;2022-12-08T09:57:37;19.70;42.80
47354;DHT22;50657;48.830;2.282;2022-12-08T10:00:05;19.70;42.70
47354;DHT22;50657;48.830;2.282;2022-12-08T10:02:33;19.80;42.70
47354;DHT22;50657;48.830;2.282;2022-12-08T10:05:00;19.90;42.60
47354;DHT22;50657;48.830;2.282;2022-12-08T10:07:36;19.90;42.40
47354;DHT22;50657;48.830;2.282;2022-12-08T10:10:11;20.00;42.30
47354;DHT22;50657;48.830;2.282;2022-12-08T10:12:44;20.00;42.00
47354;DHT22;50657;48.830;2.282;2022-12-08T10:15:34;20.10;42.10
47354;DHT22;50657;48.830;2.282;2022-12-08T10:18:11;20.10;41.90
47354;DHT22;50657;48.830;2.282;2022-12-08T10:20:41;20.10;41.70
47354;DHT22;50657;48.830;2.282;2022-12-08T10:23:18;20.20;41.80
47354;DHT22;50657;48.830;2.282;2022-12-08T10:25:49;20.20;41.50
47354;DHT22;50657;48.830;2.282;2022-12-08T10:28:16;20.30;41.60
47354;DHT22;50657;48.830;2.282;2022-12-08T10:30:43;20.30;41.30
47354;DHT22;50657;48.830;2.282;2022-12-08T10:33:14;20.40;41.20
47354;DHT22;50657;48.830;2.282;2022-12-08T10:35:44;20.50;41.20
47354;DHT22;50657;48.830;2.282;2022-12-08T10:38:21;20.50;41.00
47354;DHT22;50657;48.830;2.282;2022-12-08T10:40:50;20.60;40.80
47354;DHT22;50657;48.830;2.282;2022-12-08T10:43:20;20.60;40.60
47354;DHT22;50657;48.830;2.282;2022-12-08T10:45:48;20.60;40.50
47354;DHT22;50657;48.830;2.282;2022-12-08T10:48:17;20.60;40.30
47354;DHT22;50657;48.830;2.282;2022-12-08T10:50:47;20.60;40.30
47354;DHT22;50657;48.830;2.282;2022-12-08T10:53:22;20.60;39.90
47354;DHT22;50657;48.830;2.282;2022-12-08T10:55:51;20.60;40.00
47354;DHT22;50657;48.830;2.282;2022-12-08T10:58:26;20.60;40.00
47354;DHT22;50657;48.830;2.282;2022-12-08T11:00:55;20.70;40.00
47354;DHT22;50657;48.830;2.282;2022-12-08T11:03:27;20.60;40.00
47354;DHT22;50657;48.830;2.282;2022-12-08T11:05:56;20.60;39.90
47354;DHT22;50657;48.830;2.282;2022-12-08T11:08:26;20.60;40.00
47354;DHT22;50657;48.830;2.282;2022-12-08T11:10:54;20.70;39.90
47354;DHT22;50657;48.830;2.282;2022-12-08T11:13:23;20.60;39.80
47354;DHT22;50657;48.830;2.282;2022-12-08T11:15:53;20.70;39.70
47354;DHT22;50657;48.830;2.282;2022-12-08T11:18:38;20.70;39.60
47354;DHT22;50657;48.830;2.282;2022-12-08T11:21:07;20.70;39.60
47354;DHT22;50657;48.830;2.282;2022-12-08T11:23:37;20.70;39.70
47354;DHT22;50657;48.830;2.282;2022-12-08T11:26:14;20.70;39.70
47354;DHT22;50657;48.830;2.282;2022-12-08T11:28:43;20.70;39.60
47354;DHT22;50657;48.830;2.282;2022-12-08T11:31:20;20.70;39.70
47354;DHT22;50657;48.830;2.282;2022-12-08T11:33:49;20.70;39.40
47354;DHT22;50657;48.830;2.282;2022-12-08T11:36:20;20.70;39.50
47354;DHT22;50657;48.830;2.282;2022-12-08T11:38:52;20.70;39.50
47354;DHT22;50657;48.830;2.282;2022-12-08T11:41:24;20.70;39.60
47354;DHT22;50657;48.830;2.282;2022-12-08T11:43:57;20.70;39.50
47354;DHT22;50657;48.830;2.282;2022-12-08T11:46:33;20.70;39.40
47354;DHT22;50657;48.830;2.282;2022-12-08T11:49:02;20.70;39.40
47354;DHT22;50657;48.830;2.282;2022-12-08T11:51:32;20.70;39.50
47354;DHT22;50657;48.830;2.282;2022-12-08T11:54:12;20.80;39.40
47354;DHT22;50657;48.830;2.282;2022-12-08T11:56:44;20.80;39.30
47354;DHT22;50657;48.830;2.282;2022-12-08T11:59:18;20.80;40.00
47354;DHT22;50657;48.830;2.282;2022-12-08T12:01:46;20.80;40.40
47354;DHT22;50657;48.830;2.282;2022-12-08T12:04:19;20.80;40.50
47354;DHT22;50657;48.830;2.282;2022-12-08T12:07:20;20.80;40.60
47354;DHT22;50657;48.830;2.282;2022-12-08T12:10:17;20.70;41.30
47354;DHT22;50657;48.830;2.282;2022-12-08T12:12:58;20.60;42.60
47354;DHT22;50657;48.830;2.282;2022-12-08T12:16:01;20.50;43.60
47354;DHT22;50657;48.830;2.282;2022-12-08T12:18:36;20.50;44.90
47354;DHT22;50657;48.830;2.282;2022-12-08T12:21:09;20.40;44.80
47354;DHT22;50657;48.830;2.282;2022-12-08T12:23:40;20.40;45.30
47354;DHT22;50657;48.830;2.282;2022-12-08T12:26:17;20.40;45.50
47354;DHT22;50657;48.830;2.282;2022-12-08T12:28:49;20.40;45.60
47354;DHT22;50657;48.830;2.282;2022-12-08T12:31:20;20.30;46.20
47354;DHT22;50657;48.830;2.282;2022-12-08T12:33:49;20.30;45.60
47354;DHT22;50657;48.830;2.282;2022-12-08T12:36:17;20.30;46.20
47354;DHT22;50657;48.830;2.282;2022-12-08T12:38:45;20.30;45.60
47354;DHT22;50657;48.830;2.282;2022-12-08T12:41:33;20.20;45.50
47354;DHT22;50657;48.830;2.282;2022-12-08T12:47:02;20.20;45.40
47354;DHT22;50657;48.830;2.282;2022-12-08T12:49:52;20.10;45.30
47354;DHT22;50657;48.830;2.282;2022-12-08T12:52:43;20.20;45.10
47354;DHT22;50657;48.830;2.282;2022-12-08T12:58:48;20.10;44.90
47354;DHT22;50657;48.830;2.282;2022-12-08T13:04:33;20.00;44.70
47354;DHT22;50657;48.830;2.282;2022-12-08T13:07:01;20.00;44.70
47354;DHT22;50657;48.830;2.282;2022-12-08T13:09:31;20.00;44.60
47354;DHT22;50657;48.830;2.282;2022-12-08T13:12:06;20.00;45.20
47354;DHT22;50657;48.830;2.282;2022-12-08T13:14:37;19.90;44.40
47354;DHT22;50657;48.830;2.282;2022-12-08T13:17:12;19.90;44.40
47354;DHT22;50657;48.830;2.282;2022-12-08T13:19:44;19.90;44.30
47354;DHT22;50657;48.830;2.282;2022-12-08T13:25:47;19.90;44.10
47354;DHT22;50657;48.830;2.282;2022-12-08T13:28:22;19.80;44.00
47354;DHT22;50657;48.830;2.282;2022-12-08T13:30:52;19.80;44.10
47354;DHT22;50657;48.830;2.282;2022-12-08T13:33:26;19.70;43.90
47354;DHT22;50657;48.830;2.282;2022-12-08T13:36:12;19.70;43.90
47354;DHT22;50657;48.830;2.282;2022-12-08T13:38:40;19.70;43.80
47354;DHT22;50657;48.830;2.282;2022-12-08T13:41:15;19.60;43.80
47354;DHT22;50657;48.830;2.282;2022-12-08T13:43:46;19.60;43.90
47354;DHT22;50657;48.830;2.282;2022-12-08T13:46:23;19.60;43.80
47354;DHT22;50657;48.830;2.282;2022-12-08T13:48:55;19.60;43.70
47354;DHT22;50657;48.830;2.282;2022-12-08T13:51:27;19.60;43.60
47354;DHT22;50657;48.830;2.282;2022-12-08T13:53:59;19.60;43.60
47354;DHT22;50657;48.830;2.282;2022-12-08T13:56:28;19.60;43.50
47354;DHT22;50657;48.830;2.282;2022-12-08T13:59:22;19.50;43.40
47354;DHT22;50657;48.830;2.282;2022-12-08T14:01:51;19.60;43.30
47354;DHT22;50657;48.830;2.282;2022-12-08T14:04:20;19.50;43.30
47354;DHT22;50657;48.830;2.282;2022-12-08T14:06:50;19.50;43.20
47354;DHT22;50657;48.830;2.282;2022-12-08T14:09:20;19.50;43.20
47354;DHT22;50657;48.830;2.282;2022-12-08T14:11:51;19.50;43.10
47354;DHT22;50657;48.830;2.282;2022-12-08T14:14:22;19.50;43.10
47354;DHT22;50657;48.830;2.282;2022-12-08T14:16:55;19.50;43.10
47354;DHT22;50657;48.830;2.282;2022-12-08T14:19:24;19.50;43.00
47354;DHT22;50657;48.830;2.282;2022-12-08T14:21:54;19.40;43.00
47354;DHT22;50657;48.830;2.282;2022-12-08T14:24:23;19.50;43.00
47354;DHT22;50657;48.830;2.282;2022-12-08T14:26:52;19.50;43.00
47354;DHT22;50657;48.830;2.282;2022-12-08T14:29:37;19.40;42.90
47354;DHT22;50657;48.830;2.282;2022-12-08T14:32:22;19.40;42.80
47354;DHT22;50657;48.830;2.282;2022-12-08T14:34:52;19.40;42.80
47354;DHT22;50657;48.830;2.282;2022-12-08T14:37:19;19.30;42.80
47354;DHT22;50657;48.830;2.282;2022-12-08T14:39:47;19.30;42.80
47354;DHT22;50657;48.830;2.282;2022-12-08T14:42:21;19.30;42.70
47354;DHT22;50657;48.830;2.282;2022-12-08T14:44:54;19.30;42.70
47354;DHT22;50657;48.830;2.282;2022-12-08T14:47:28;19.30;42.70
47354;DHT22;50657;48.830;2.282;2022-12-08T14:49:55;19.20;42.60
47354;DHT22;50657;48.830;2.282;2022-12-08T14:52:23;19.20;42.70
47354;DHT22;50657;48.830;2.282;2022-12-08T14:54:51;19.30;42.70
47354;DHT22;50657;48.830;2.282;2022-12-08T14:57:19;19.20;42.60
47354;DHT22;50657;48.830;2.282;2022-12-08T14:59:47;19.20;42.60
47354;DHT22;50657;48.830;2.282;2022-12-08T15:02:25;19.20;43.20
47354;DHT22;50657;48.830;2.282;2022-12-08T15:04:59;19.20;42.50
47354;DHT22;50657;48.830;2.282;2022-12-08T15:07:29;19.20;42.50
47354;DHT22;50657;48.830;2.282;2022-12-08T15:10:17;19.20;42.50
47354;DHT22;50657;48.830;2.282;2022-12-08T15:13:04;19.20;42.50
47354;DHT22;50657;48.830;2.282;2022-12-08T15:15:46;19.20;42.50
47354;DHT22;50657;48.830;2.282;2022-12-08T15:18:17;19.20;42.40
47354;DHT22;50657;48.830;2.282;2022-12-08T15:20:46;19.20;42.50
47354;DHT22;50657;48.830;2.282;2022-12-08T15:23:24;19.10;42.40
47354;DHT22;50657;48.830;2.282;2022-12-08T15:25:53;19.10;42.30
47354;DHT22;50657;48.830;2.282;2022-12-08T15:28:23;19.10;42.40
47354;DHT22;50657;48.830;2.282;2022-12-08T15:30:50;19.10;42.30
47354;DHT22;50657;48.830;2.282;2022-12-08T15:33:20;19.10;42.30
47354;DHT22;50657;48.830;2.282;2022-12-08T15:35:48;19.10;42.30
47354;DHT22;50657;48.830;2.282;2022-12-08T15:38:18;19.10;42.20
47354;DHT22;50657;48.830;2.282;2022-12-08T15:40:46;19.10;42.20
47354;DHT22;50657;48.830;2.282;2022-12-08T15:43:13;19.10;42.20
47354;DHT22;50657;48.830;2.282;2022-12-08T15:45:40;19.10;42.10
47354;DHT22;50657;48.830;2.282;2022-12-08T15:48:14;19.10;42.10
47354;DHT22;50657;48.830;2.282;2022-12-08T15:50:44;19.10;42.10
47354;DHT22;50657;48.830;2.282;2022-12-08T15:53:11;19.10;42.00
47354;DHT22;50657;48.830;2.282;2022-12-08T15:55:39;19.10;42.00
47354;DHT22;50657;48.830;2.282;2022-12-08T15:58:06;19.10;42.00
47354;DHT22;50657;48.830;2.282;2022-12-08T16:00:36;19.10;42.00
47354;DHT22;50657;48.830;2.282;2022-12-08T16:03:03;19.10;41.90
47354;DHT22;50657;48.830;2.282;2022-12-08T16:05:30;19.10;41.90
47354;DHT22;50657;48.830;2.282;2022-12-08T16:07:59;19.10;41.90